Time;durP1;ratioP1;P1;durP2;ratioP2;P2;SDS_P1;SDS_P2;PMS_P1;PMS_P2;Temp;Humidity;BMP_temperature;BMP_pressure;BME280_temperature;BME280_humidity;BME280_pressure;Samples;Min_cycle;Max_cycle;Signal;HPM_P1;HPM_P2
2023/12/20 00:02:16;;;;;;;;;7.00;6.00;;;;;9.93;98.00;101848.66;4997798;28;45402;-54
2023/12/20 00:04:41;;;;;;;;;9.00;9.00;;;;;9.93;97.69;101851.31;4997847;28;45553;-57
2023/12/20 00:07:07;;;;;;;;;9.00;7.00;;;;;9.91;97.94;101854.09;4996242;28;45511;-54
2023/12/20 00:09:32;;;;;;;;;7.00;7.00;;;;;9.89;97.52;101853.34;4998521;28;45403;-57
2023/12/20 00:11:57;;;;;;;;;8.00;8.00;;;;;9.93;97.62;101864.59;4998529;28;45413;-58
2023/12/20 00:14:23;;;;;;;;;10.00;10.00;;;;;9.93;97.36;101868.09;4998410;28;45319;-57
2023/12/20 00:16:48;;;;;;;;;12.33;11.33;;;;;9.93;96.78;101880.56;4998058;28;51657;-57
2023/12/20 00:19:13;;;;;;;;;10.33;7.00;;;;;9.93;96.40;101877.91;4998356;28;45251;-55
2023/12/20 00:21:39;;;;;;;;;7.00;7.00;;;;;9.92;95.99;101884.19;4998616;28;45394;-53
2023/12/20 00:24:04;;;;;;;;;13.67;9.00;;;;;9.91;95.71;101888.66;4998700;28;45426;-57
2023/12/20 00:26:30;;;;;;;;;9.33;6.67;;;;;9.91;95.42;101895.78;4998255;28;45434;-57
2023/12/20 00:28:55;;;;;;;;;8.00;7.00;;;;;9.87;95.04;101899.63;4997943;28;45556;-56
2023/12/20 00:31:20;;;;;;;;;12.67;8.00;;;;;9.87;94.95;101896.97;4998295;28;45455;-57
2023/12/20 00:33:46;;;;;;;;;10.00;10.00;;;;;9.86;95.00;101904.09;4998199;28;45481;-57
2023/12/20 00:36:12;;;;;;;;;7.00;6.00;;;;;9.83;94.01;101909.63;4998079;28;45352;-58
2023/12/20 00:38:37;;;;;;;;;7.67;5.00;;;;;9.79;92.83;101915.28;4997837;28;45377;-55
2023/12/20 00:41:03;;;;;;;;;6.33;4.33;;;;;9.79;92.29;101912.63;4998135;28;45342;-55
2023/12/20 00:43:28;;;;;;;;;4.00;4.00;;;;;9.73;91.14;101909.47;4998250;28;45410;-57
2023/12/20 00:45:55;;;;;;;;;3.00;2.00;;;;;9.70;89.87;101908.84;4997997;28;47462;-55
2023/12/20 00:48:20;;;;;;;;;2.00;2.00;;;;;9.50;88.85;101881.91;4997922;28;45339;-57
2023/12/20 00:50:46;;;;;;;;;2.33;2.33;;;;;9.65;88.51;101911.84;4996692;28;45445;-56
2023/12/20 00:53:11;;;;;;;;;5.00;2.00;;;;;9.64;88.01;101914.59;4998148;28;45331;-57
2023/12/20 00:55:36;;;;;;;;;2.00;1.67;;;;;9.59;87.48;101916.75;4996573;28;46102;-57
2023/12/20 00:58:02;;;;;;;;;1.67;1.67;;;;;9.50;86.38;101908.47;4997614;28;46657;-58
2023/12/20 01:00:27;;;;;;;;;3.00;1.00;;;;;9.40;88.09;101909.28;4997941;28;45410;-55
2023/12/20 01:02:52;;;;;;;;;2.67;1.00;;;;;9.31;86.13;101918.72;4997984;28;45495;-57
2023/12/20 01:05:19;;;;;;;;;0.33;0.33;;;;;9.22;85.70;101906.94;4997649;28;46158;-57
2023/12/20 01:07:44;;;;;;;;;1.67;1.00;;;;;9.13;85.33;101915.56;4997642;28;45437;-57
2023/12/20 01:10:09;;;;;;;;;0.00;0.00;;;;;9.08;84.74;101923.03;4997762;28;45393;-57
2023/12/20 01:12:36;;;;;;;;;2.00;1.00;;;;;9.04;84.33;101910.91;4997930;28;45522;-57
2023/12/20 01:15:01;;;;;;;;;2.00;1.00;;;;;8.94;84.18;101894.81;4997359;28;47057;-56
2023/12/20 01:17:26;;;;;;;;;0.00;0.00;;;;;8.97;84.30;101918.47;4997299;28;45370;-57
2023/12/20 01:19:52;;;;;;;;;5.33;1.00;;;;;8.93;84.15;101922.31;4997638;28;45361;-58
2023/12/20 01:22:17;;;;;;;;;1.00;1.00;;;;;8.88;84.60;101928.88;4997711;28;45382;-56
2023/12/20 01:24:42;;;;;;;;;4.33;1.00;;;;;8.83;84.17;101938.97;4997255;28;45631;-57
2023/12/20 01:27:08;;;;;;;;;3.00;1.00;;;;;8.77;84.03;101939.41;4997616;28;45466;-55
2023/12/20 01:29:33;;;;;;;;;3.00;0.00;;;;;8.74;84.43;101945.75;4997284;28;45188;-53
2023/12/20 01:31:58;;;;;;;;;1.00;0.00;;;;;8.68;84.98;101941.72;5012756;28;45461;-57
2023/12/20 01:34:24;;;;;;;;;3.00;0.00;;;;;8.65;84.88;101947.22;4996963;28;46123;-57
2023/12/20 01:36:49;;;;;;;;;0.00;0.00;;;;;8.64;85.06;101940.25;4997257;28;45334;-57
2023/12/20 01:39:14;;;;;;;;;1.00;1.00;;;;;8.61;84.90;101940.44;4997265;28;45250;-57
2023/12/20 01:41:40;;;;;;;;;6.00;1.00;;;;;8.58;85.01;101942.44;4997417;28;45323;-57
2023/12/20 01:44:05;;;;;;;;;1.00;1.00;;;;;8.54;85.61;101941.78;4997120;28;45850;-58
2023/12/20 01:46:30;;;;;;;;;0.67;0.67;;;;;8.52;85.57;101945.53;4997012;28;45351;-57
2023/12/20 01:48:56;;;;;;;;;2.67;0.00;;;;;8.49;85.62;101951.88;4997026;28;45431;-56
2023/12/20 01:51:22;;;;;;;;;0.00;0.00;;;;;8.46;85.14;101952.06;4997425;28;45424;-55
2023/12/20 01:53:48;;;;;;;;;5.67;1.00;;;;;8.42;85.81;101947.94;4996827;28;46029;-56
2023/12/20 01:56:14;;;;;;;;;6.00;1.00;;;;;8.40;85.84;101948.03;4996727;28;45389;-54
2023/12/20 01:58:46;;;;;;;;;3.00;1.33;;;;;8.37;86.04;101955.34;4996665;28;45482;-55
2023/12/20 02:01:12;;;;;;;;;1.00;0.00;;;;;8.36;85.54;101958.94;4996877;28;45320;-55
2023/12/20 02:03:37;;;;;;;;;5.33;1.00;;;;;8.36;85.27;101967.72;4996854;28;45923;-56
2023/12/20 02:06:04;;;;;;;;;0.33;0.33;;;;;8.37;84.87;101969.44;4996249;28;45619;-55
2023/12/20 02:08:30;;;;;;;;;1.33;1.33;;;;;8.38;84.79;101968.50;4996865;28;45334;-55
2023/12/20 02:10:56;;;;;;;;;5.00;1.00;;;;;8.37;85.21;101969.44;4996968;28;45381;-55
2023/12/20 02:13:21;;;;;;;;;3.67;1.00;;;;;8.43;85.08;101962.91;4996393;28;48109;-57
2023/12/20 02:15:46;;;;;;;;;1.00;0.67;;;;;8.49;84.79;101965.13;4996528;28;45391;-56
2023/12/20 02:18:15;;;;;;;;;2.00;1.00;;;;;8.52;84.42;101962.28;4996638;28;45707;-53
2023/12/20 02:20:40;;;;;;;;;3.67;1.33;;;;;8.55;83.53;101977.13;4996817;28;45457;-57
2023/12/20 02:23:06;;;;;;;;;1.00;1.00;;;;;8.56;83.26;101977.03;4996374;28;46126;-54
2023/12/20 02:25:31;;;;;;;;;2.00;1.00;;;;;8.66;83.26;101991.38;4996398;28;48688;-55
2023/12/20 02:27:56;;;;;;;;;0.67;0.67;;;;;8.66;83.17;101982.56;4996579;28;45299;-54
2023/12/20 02:30:22;;;;;;;;;2.00;0.00;;;;;8.70;82.77;101981.41;4996704;28;45371;-56
2023/12/20 02:32:49;;;;;;;;;2.00;0.67;;;;;8.72;83.00;101977.72;4996158;28;45432;-57
2023/12/20 02:35:14;;;;;;;;;3.00;0.00;;;;;8.68;82.28;101972.69;4996066;28;45459;-58
2023/12/20 02:37:39;;;;;;;;;1.00;1.00;;;;;8.68;82.63;101985.94;4996611;28;45397;-57
2023/12/20 02:40:05;;;;;;;;;3.00;2.00;;;;;8.66;82.52;101990.53;4996823;28;45465;-58
2023/12/20 02:42:31;;;;;;;;;1.00;1.00;;;;;8.62;82.39;101987.22;4996308;28;46115;-55
2023/12/20 02:44:56;;;;;;;;;0.00;0.00;;;;;8.51;82.00;101976.47;4995984;28;45437;-56
2023/12/20 02:47:21;;;;;;;;;1.67;0.67;;;;;8.60;82.14;101991.78;4996866;28;45414;-57
2023/12/20 02:49:47;;;;;;;;;2.00;0.00;;;;;8.59;81.49;101998.03;4996569;28;45441;-57
2023/12/20 02:52:12;;;;;;;;;1.00;1.00;;;;;8.57;81.96;101999.94;4996878;28;46280;-55
2023/12/20 02:54:39;;;;;;;;;0.67;0.67;;;;;8.50;82.51;101993.34;4996343;28;45361;-57
2023/12/20 02:57:04;;;;;;;;;0.00;0.00;;;;;8.46;82.68;101997.16;4996417;28;45321;-57
2023/12/20 02:59:29;;;;;;;;;2.00;1.00;;;;;8.41;81.63;102000.13;4996168;28;45348;-58
2023/12/20 03:01:55;;;;;;;;;1.67;1.67;;;;;8.37;82.59;101985.38;4995940;28;46277;-55
2023/12/20 03:04:20;;;;;;;;;4.33;1.00;;;;;8.35;82.35;101999.66;4996337;28;45402;-56
2023/12/20 03:06:46;;;;;;;;;0.33;0.33;;;;;8.30;82.54;101993.78;4996029;28;45321;-55
2023/12/20 03:09:11;;;;;;;;;3.33;1.00;;;;;8.27;82.99;102001.97;4996235;28;45366;-57
2023/12/20 03:11:36;;;;;;;;;1.33;1.00;;;;;8.24;82.33;102000.34;4995887;28;47011;-57
2023/12/20 03:14:02;;;;;;;;;6.33;2.00;;;;;8.20;82.92;102007.66;4995708;28;45276;-57
2023/12/20 03:16:27;;;;;;;;;0.00;0.00;;;;;8.18;82.41;102001.63;4994639;28;45505;-57
2023/12/20 03:18:52;;;;;;;;;2.33;1.00;;;;;8.17;82.91;101997.25;4997603;28;45576;-53
2023/12/20 03:21:18;;;;;;;;;0.00;0.00;;;;;8.09;82.99;101986.31;4999173;28;45910;-58
2023/12/20 03:23:44;;;;;;;;;1.00;0.00;;;;;8.09;82.72;101991.63;4999048;28;49412;-57
2023/12/20 03:26:09;;;;;;;;;0.00;0.00;;;;;8.01;82.73;101999.22;4999377;28;45490;-57
2023/12/20 03:28:36;;;;;;;;;2.00;0.00;;;;;8.07;83.44;102001.44;4999466;28;45389;-54
2023/12/20 03:31:02;;;;;;;;;1.00;1.00;;;;;8.06;82.95;102004.22;4998957;28;46218;-58
2023/12/20 03:33:27;;;;;;;;;3.33;0.00;;;;;8.03;83.64;101994.66;4998868;28;45340;-58
2023/12/20 03:35:53;;;;;;;;;0.00;0.00;;;;;8.02;82.64;101992.09;4998903;28;45834;-56
2023/12/20 03:38:18;;;;;;;;;1.00;1.00;;;;;8.00;83.36;101993.03;4999064;28;45248;-56
2023/12/20 03:40:43;;;;;;;;;1.00;0.67;;;;;7.89;83.85;101989.41;4998884;28;47651;-57
2023/12/20 03:43:09;;;;;;;;;1.00;1.00;;;;;7.98;82.92;102004.72;4999044;28;45346;-56
2023/12/20 03:45:34;;;;;;;;;1.67;1.67;;;;;7.96;83.88;102006.59;4998464;28;45400;-53
2023/12/20 03:47:59;;;;;;;;;2.00;1.00;;;;;7.89;83.74;101990.25;4999157;28;45512;-50
2023/12/20 03:50:28;;;;;;;;;3.67;2.00;;;;;7.82;84.02;101988.09;4998684;28;46163;-56
2023/12/20 03:52:54;;;;;;;;;2.00;0.00;;;;;7.93;84.49;102004.16;4998815;28;45472;-57
2023/12/20 03:55:19;;;;;;;;;3.00;3.00;;;;;7.91;83.87;101998.94;4998676;28;45318;-57
2023/12/20 03:57:45;;;;;;;;;2.00;1.33;;;;;7.91;83.74;102006.88;4999126;28;45392;-54
2023/12/20 04:00:11;;;;;;;;;4.00;0.00;;;;;7.90;83.07;102009.66;4998506;28;46283;-57
2023/12/20 04:02:37;;;;;;;;;2.00;1.00;;;;;7.89;83.93;102005.31;4998711;28;45653;-58
2023/12/20 04:05:02;;;;;;;;;2.67;1.00;;;;;7.83;83.71;102008.31;4998735;28;45381;-58
2023/12/20 04:07:28;;;;;;;;;2.67;1.00;;;;;7.87;83.92;102004.53;4998945;28;45335;-57
2023/12/20 04:09:53;;;;;;;;;2.67;1.00;;;;;7.86;82.99;102014.28;4998875;28;46138;-56
2023/12/20 04:12:18;;;;;;;;;0.00;0.00;;;;;7.87;83.53;102007.19;4998520;28;45481;-57
2023/12/20 04:14:44;;;;;;;;;2.00;0.00;;;;;7.85;83.90;102004.66;4998141;28;48827;-57
2023/12/20 04:17:09;;;;;;;;;2.00;0.00;;;;;7.84;84.34;101999.47;4998539;28;45404;-57
2023/12/20 04:19:34;;;;;;;;;2.00;0.00;;;;;7.81;84.32;102005.78;4998327;28;46894;-56
2023/12/20 04:21:59;;;;;;;;;1.00;1.00;;;;;7.82;83.29;102001.34;4998293;28;45298;-58
2023/12/20 04:24:25;;;;;;;;;3.00;1.33;;;;;7.81;83.85;102010.25;4998413;28;45443;-56
2023/12/20 04:26:50;;;;;;;;;0.00;0.00;;;;;7.78;84.05;102008.63;4998597;28;45680;-55
2023/12/20 04:29:15;;;;;;;;;1.33;1.00;;;;;7.78;83.78;102018.38;4998097;28;46087;-54
2023/12/20 04:31:41;;;;;;;;;6.00;2.00;;;;;7.78;84.15;102021.03;4998146;28;45404;-54
2023/12/20 04:34:06;;;;;;;;;5.00;1.00;;;;;7.77;83.57;102020.19;4998101;28;45465;-54
2023/12/20 04:36:31;;;;;;;;;2.00;1.00;;;;;7.75;83.48;102012.34;4998424;28;45285;-55
2023/12/20 04:38:57;;;;;;;;;1.67;0.33;;;;;7.77;83.76;102019.31;4998093;28;45378;-54
2023/12/20 04:41:22;;;;;;;;;0.00;0.00;;;;;7.75;83.51;102004.38;4996728;28;46252;-57
2023/12/20 04:43:47;;;;;;;;;1.00;0.67;;;;;7.74;83.46;102000.00;4998239;28;45456;-57
2023/12/20 04:46:13;;;;;;;;;1.00;0.00;;;;;7.74;83.45;102017.72;4997912;28;45412;-55
2023/12/20 04:48:38;;;;;;;;;2.00;0.00;;;;;7.73;84.14;102016.88;4997728;28;45581;-55
2023/12/20 04:51:04;;;;;;;;;1.00;1.00;;;;;7.72;83.96;102003.72;4997912;28;45413;-55
2023/12/20 04:53:29;;;;;;;;;0.00;0.00;;;;;7.71;84.25;102002.88;4997886;28;45405;-57
2023/12/20 04:55:54;;;;;;;;;5.00;1.00;;;;;7.71;83.02;102020.53;4998065;28;45500;-55
2023/12/20 04:58:19;;;;;;;;;1.00;1.00;;;;;7.70;83.39;102011.75;4997453;28;50570;-55
2023/12/20 05:00:45;;;;;;;;;5.00;2.00;;;;;7.71;84.24;102025.84;4997580;28;45382;-56
2023/12/20 05:03:10;;;;;;;;;0.00;0.00;;;;;7.71;84.07;102023.19;4997735;28;45391;-56
2023/12/20 05:05:35;;;;;;;;;2.00;0.00;;;;;7.69;83.81;102025.94;4998059;28;45374;-56
2023/12/20 05:08:01;;;;;;;;;2.33;0.00;;;;;7.68;84.34;102021.59;4997555;28;45968;-54
2023/12/20 05:10:27;;;;;;;;;1.00;1.00;;;;;7.65;83.88;102013.84;4997435;28;45523;-54
2023/12/20 05:12:52;;;;;;;;;1.00;1.00;;;;;7.67;84.00;102022.56;4997737;28;45352;-57
2023/12/20 05:15:17;;;;;;;;;0.00;0.00;;;;;7.67;83.90;102030.50;4997648;28;45318;-54
2023/12/20 05:17:43;;;;;;;;;2.00;1.00;;;;;7.59;83.63;102016.91;4997271;28;46284;-54
2023/12/20 05:20:08;;;;;;;;;2.33;1.00;;;;;7.65;84.09;102028.88;4997570;28;45307;-54
2023/12/20 05:22:33;;;;;;;;;1.33;0.00;;;;;7.66;83.50;102030.59;4997511;28;46000;-56
2023/12/20 05:24:59;;;;;;;;;0.67;0.67;;;;;7.67;83.57;102027.00;4997597;28;45369;-56
2023/12/20 05:27:24;;;;;;;;;5.00;1.67;;;;;7.70;84.07;102021.50;4996995;28;53138;-54
2023/12/20 05:29:50;;;;;;;;;0.67;0.67;;;;;7.71;83.59;102024.06;4997418;28;45299;-55
2023/12/20 05:32:16;;;;;;;;;3.00;1.00;;;;;7.68;83.80;102013.66;4997344;28;45397;-57
2023/12/20 05:34:41;;;;;;;;;0.00;0.00;;;;;7.67;83.42;102024.38;4997114;28;45296;-56
2023/12/20 05:37:06;;;;;;;;;1.00;1.00;;;;;7.66;83.27;102031.44;4996904;28;57023;-55
2023/12/20 05:39:31;;;;;;;;;3.67;0.67;;;;;7.65;84.16;102031.53;4996940;28;48173;-56
2023/12/20 05:41:57;;;;;;;;;0.00;0.00;;;;;7.62;84.17;102024.63;4996518;28;45438;-58
2023/12/20 05:44:22;;;;;;;;;0.67;0.00;;;;;7.59;83.21;102024.84;4997185;28;45287;-54
2023/12/20 05:46:47;;;;;;;;;5.00;1.00;;;;;7.60;83.93;102031.81;4995493;28;45875;-56
2023/12/20 05:49:13;;;;;;;;;2.67;1.00;;;;;7.59;83.99;102035.44;4997210;28;45362;-57
2023/12/20 05:51:39;;;;;;;;;7.00;0.67;;;;;7.59;83.79;102035.44;4997522;28;45441;-57
2023/12/20 05:54:05;;;;;;;;;2.00;0.67;;;;;7.53;83.54;102034.94;4997101;28;46007;-56
2023/12/20 05:56:30;;;;;;;;;1.00;1.00;;;;;7.58;84.35;102043.44;4996636;28;46166;-55
2023/12/20 05:58:55;;;;;;;;;2.67;0.00;;;;;7.58;83.95;102043.44;4996811;28;45427;-56
2023/12/20 06:01:21;;;;;;;;;5.33;2.00;;;;;7.56;83.42;102048.84;4996955;28;45469;-56
2023/12/20 06:03:46;;;;;;;;;3.33;2.00;;;;;7.55;83.82;102055.09;4997046;28;45778;-55
2023/12/20 06:06:12;;;;;;;;;4.33;2.00;;;;;7.56;84.21;102053.31;4996869;28;45378;-54
2023/12/20 06:08:38;;;;;;;;;6.00;4.00;;;;;7.55;84.40;102062.19;4996610;28;45448;-57
2023/12/20 06:11:03;;;;;;;;;2.00;0.33;;;;;7.54;83.47;102061.31;4996672;28;45437;-54
2023/12/20 06:13:28;;;;;;;;;5.00;0.67;;;;;7.52;83.72;102060.59;4995947;28;45381;-56
2023/12/20 06:15:55;;;;;;;;;2.00;2.00;;;;;7.53;84.41;102066.72;4996501;28;46210;-53
2023/12/20 06:18:20;;;;;;;;;6.67;2.00;;;;;7.49;84.29;102060.75;4996607;28;45503;-57
2023/12/20 06:20:45;;;;;;;;;1.00;1.00;;;;;7.46;83.82;102061.81;4996786;28;45394;-57
2023/12/20 06:23:11;;;;;;;;;4.67;1.00;;;;;7.53;84.05;102062.28;4996767;28;45323;-57
2023/12/20 06:25:36;;;;;;;;;2.67;1.67;;;;;7.49;83.96;102066.91;4996389;28;46242;-57
2023/12/20 06:28:01;;;;;;;;;5.67;1.67;;;;;7.52;83.61;102071.16;4995204;28;45438;-57
2023/12/20 06:30:27;;;;;;;;;1.67;0.00;;;;;7.52;84.24;102062.38;4996548;28;45413;-58
2023/12/20 06:32:53;;;;;;;;;1.00;1.00;;;;;7.44;84.79;102052.25;4996389;28;45311;-57
2023/12/20 06:35:18;;;;;;;;;0.67;0.67;;;;;7.51;84.03;102056.25;4996057;28;45436;-56
2023/12/20 06:37:44;;;;;;;;;1.00;0.33;;;;;7.52;83.86;102059.72;4996342;28;45721;-56
2023/12/20 06:40:10;;;;;;;;;2.00;1.00;;;;;7.50;83.21;102055.41;4996528;28;45449;-57
2023/12/20 06:42:35;;;;;;;;;5.67;2.00;;;;;7.47;84.38;102052.94;4996704;28;45688;-56
2023/12/20 06:45:01;;;;;;;;;1.00;1.00;;;;;7.48;84.61;102054.63;4996218;28;46297;-56
2023/12/20 06:47:26;;;;;;;;;4.00;1.67;;;;;7.45;84.30;102053.94;4996058;28;45475;-57
2023/12/20 06:49:51;;;;;;;;;4.00;1.33;;;;;7.36;84.27;102046.59;4996032;28;45394;-56
2023/12/20 06:52:17;;;;;;;;;5.00;2.67;;;;;7.46;84.02;102063.63;4996819;28;45377;-57
2023/12/20 06:54:42;;;;;;;;;3.00;1.67;;;;;7.44;84.51;102063.69;4999126;28;46215;-57
2023/12/20 06:57:08;;;;;;;;;6.67;2.00;;;;;7.44;83.98;102062.84;5014644;28;45301;-56
2023/12/20 06:59:41;;;;;;;;;5.67;4.00;;;;;7.45;84.63;102069.84;4999629;28;45473;-56
2023/12/20 07:02:06;;;;;;;;;2.00;2.00;;;;;7.45;84.14;102067.19;4999539;28;45349;-57
2023/12/20 07:04:31;;;;;;;;;3.00;0.00;;;;;7.43;84.51;102067.28;4999117;28;45909;-53
2023/12/20 07:07:00;;;;;;;;;6.33;2.00;;;;;7.36;84.85;102063.31;4999034;28;51266;-56
2023/12/20 07:09:28;;;;;;;;;2.33;2.00;;;;;7.42;84.21;102081.47;4999403;28;45457;-55
2023/12/20 07:11:53;;;;;;;;;0.33;0.33;;;;;7.40;83.96;102077.22;4999418;28;45511;-55
2023/12/20 07:14:18;;;;;;;;;2.00;2.00;;;;;7.39;84.98;102078.16;4998901;28;45512;-54
2023/12/20 07:16:44;;;;;;;;;1.67;1.00;;;;;7.39;85.18;102080.81;4998840;28;48230;-56
2023/12/20 07:19:09;;;;;;;;;3.33;1.33;;;;;7.39;85.23;102084.31;4999276;28;45421;-53
2023/12/20 07:21:34;;;;;;;;;2.33;2.00;;;;;7.34;84.81;102085.53;4999166;28;45346;-56
2023/12/20 07:23:59;;;;;;;;;5.00;1.33;;;;;7.37;85.22;102082.69;4998996;28;47145;-56
2023/12/20 07:26:25;;;;;;;;;6.00;2.00;;;;;7.37;85.19;102077.41;4999097;28;45457;-56
2023/12/20 07:28:50;;;;;;;;;1.00;1.00;;;;;7.25;84.75;102069.28;4999331;28;45934;-56
2023/12/20 07:31:16;;;;;;;;;4.67;2.00;;;;;7.37;85.58;102086.19;4999518;28;45642;-54
2023/12/20 07:33:41;;;;;;;;;5.33;2.00;;;;;7.34;85.51;102085.53;4998739;28;46420;-55
2023/12/20 07:36:07;;;;;;;;;1.00;1.00;;;;;7.34;85.15;102091.69;4999044;28;45484;-55
2023/12/20 07:38:33;;;;;;;;;2.00;1.00;;;;;7.35;85.05;102101.31;4999092;28;45370;-55
2023/12/20 07:40:58;;;;;;;;;5.00;3.00;;;;;7.34;85.53;102104.91;4999117;28;45267;-54
2023/12/20 07:43:23;;;;;;;;;6.00;5.00;;;;;7.35;85.78;102109.25;4998936;28;47084;-54
2023/12/20 07:45:48;;;;;;;;;2.33;2.00;;;;;7.36;85.17;102110.97;4998921;28;45420;-54
2023/12/20 07:48:14;;;;;;;;;2.00;2.00;;;;;7.36;84.83;102097.72;4998827;28;45428;-58
2023/12/20 07:50:39;;;;;;;;;3.33;1.00;;;;;7.38;85.48;102095.84;4999249;28;45327;-54
2023/12/20 07:53:04;;;;;;;;;2.67;1.00;;;;;7.40;85.45;102104.53;4998876;28;46841;-56
2023/12/20 07:55:31;;;;;;;;;1.00;1.00;;;;;7.41;85.21;102105.38;4999167;28;45310;-57
2023/12/20 07:57:56;;;;;;;;;2.00;2.00;;;;;7.43;85.65;102101.72;4998970;28;45369;-55
2023/12/20 08:00:21;;;;;;;;;1.67;1.67;;;;;7.44;85.49;102114.00;4998727;28;45314;-56
2023/12/20 08:02:47;;;;;;;;;1.67;1.00;;;;;7.48;85.87;102112.03;4998453;28;45346;-56
2023/12/20 08:05:13;;;;;;;;;7.33;4.67;;;;;7.50;85.56;102111.00;4997884;28;46168;-57
2023/12/20 08:07:38;;;;;;;;;7.00;3.00;;;;;7.53;85.08;102104.63;4998954;28;45595;-57
2023/12/20 08:10:05;;;;;;;;;4.67;4.00;;;;;7.56;85.26;102109.75;4998737;28;45496;-56
2023/12/20 08:12:30;;;;;;;;;1.67;1.67;;;;;7.55;84.97;102097.47;4998395;28;46466;-57
2023/12/20 08:14:56;;;;;;;;;5.00;3.00;;;;;7.61;84.97;102093.59;4998176;28;45486;-56
2023/12/20 08:17:23;;;;;;;;;6.33;2.00;;;;;7.62;84.84;102096.13;4998572;28;45227;-56
2023/12/20 08:19:48;;;;;;;;;6.00;5.00;;;;;7.66;84.41;102102.09;4998570;28;45464;-55
2023/12/20 08:22:14;;;;;;;;;6.67;5.00;;;;;7.61;84.54;102096.22;4998177;28;45346;-56
2023/12/20 08:24:41;;;;;;;;;2.67;2.00;;;;;7.73;84.27;102106.06;4998420;28;45242;-55
2023/12/20 08:27:06;;;;;;;;;2.00;2.00;;;;;7.75;84.69;102105.03;4998645;28;45371;-55
2023/12/20 08:29:31;;;;;;;;;1.33;1.33;;;;;7.78;84.05;102098.69;4998413;28;45303;-53
2023/12/20 08:31:57;;;;;;;;;3.67;3.00;;;;;7.76;84.34;102082.06;4998301;28;45441;-53
2023/12/20 08:34:23;;;;;;;;;2.67;2.00;;;;;7.84;84.31;102100.13;4997956;28;45365;-52
2023/12/20 08:36:50;;;;;;;;;2.00;2.00;;;;;7.86;84.27;102095.56;4997008;28;45335;-53
2023/12/20 08:39:15;;;;;;;;;7.00;2.00;;;;;7.89;84.00;102098.88;4998284;28;45251;-55
2023/12/20 08:41:40;;;;;;;;;8.67;3.00;;;;;7.92;83.89;102096.03;4997920;28;46908;-55
2023/12/20 08:44:05;;;;;;;;;6.00;3.00;;;;;7.94;83.66;102090.63;4998132;28;45288;-53
2023/12/20 08:46:31;;;;;;;;;7.00;3.00;;;;;8.00;83.21;102090.25;4998212;28;45426;-55
2023/12/20 08:48:56;;;;;;;;;4.00;4.00;;;;;8.03;82.90;102098.00;4998112;28;45381;-53
2023/12/20 08:51:23;;;;;;;;;7.00;3.00;;;;;7.99;83.15;102088.53;4997749;28;46030;-51
2023/12/20 08:53:51;;;;;;;;;5.00;2.67;;;;;8.12;82.64;102100.06;4997761;28;45446;-55
2023/12/20 08:56:17;;;;;;;;;2.67;2.67;;;;;8.09;81.92;102092.31;4996598;28;45363;-54
2023/12/20 08:58:43;;;;;;;;;5.67;4.00;;;;;8.14;82.65;102087.59;4997763;28;45358;-54
2023/12/20 09:01:09;;;;;;;;;5.33;2.67;;;;;8.35;81.87;102106.56;4997622;28;45546;-55
2023/12/20 09:03:34;;;;;;;;;3.00;2.00;;;;;8.39;81.98;102120.50;4997900;28;45555;-53
2023/12/20 09:05:59;;;;;;;;;10.33;3.00;;;;;8.47;81.18;102123.53;4997808;28;45932;-55
2023/12/20 09:08:25;;;;;;;;;3.67;2.00;;;;;8.49;81.40;102117.16;4997926;28;45501;-54
2023/12/20 09:10:50;;;;;;;;;6.00;3.67;;;;;8.46;81.48;102105.88;4997731;28;51499;-57
2023/12/20 09:13:16;;;;;;;;;5.00;2.67;;;;;8.61;80.80;102109.34;4997479;28;45364;-53
2023/12/20 09:15:41;;;;;;;;;2.67;2.67;;;;;9.00;79.79;102103.19;4996847;28;45341;-55
2023/12/20 09:18:07;;;;;;;;;5.00;5.00;;;;;9.28;79.20;102098.69;4997561;28;45315;-55
2023/12/20 09:20:32;;;;;;;;;1.67;1.67;;;;;9.56;78.45;102114.38;4997466;28;45845;-53
2023/12/20 09:22:58;;;;;;;;;2.67;1.00;;;;;9.91;77.06;102105.75;4997378;28;45489;-55
2023/12/20 09:25:25;;;;;;;;;6.33;2.67;;;;;10.39;76.20;102103.22;4997412;28;45366;-55
2023/12/20 09:27:52;;;;;;;;;2.67;2.33;;;;;10.91;74.33;102094.00;4997821;28;45426;-56
2023/12/20 09:30:17;;;;;;;;;8.00;5.67;;;;;11.40;72.99;102098.25;4997267;28;45405;-55
2023/12/20 09:32:43;;;;;;;;;4.33;2.00;;;;;11.44;71.69;102102.38;4997043;28;45303;-55
2023/12/20 09:35:08;;;;;;;;;1.00;1.00;;;;;11.24;72.22;102090.59;4997175;28;45311;-56
2023/12/20 09:37:34;;;;;;;;;1.67;1.00;;;;;11.01;73.85;102100.34;4997574;28;45624;-56
2023/12/20 09:39:59;;;;;;;;;5.67;3.00;;;;;10.77;72.50;102103.03;4997129;28;45391;-58
2023/12/20 09:42:38;;;;;;;;;7.33;2.33;;;;;10.60;72.39;102098.97;4996956;28;46840;-58
2023/12/20 09:45:08;;;;;;;;;9.33;3.00;;;;;10.51;73.77;102101.47;4996215;28;45394;-56
2023/12/20 09:47:33;;;;;;;;;6.33;3.00;;;;;10.50;73.92;102103.28;4997595;28;45739;-57
2023/12/20 09:49:59;;;;;;;;;3.33;2.00;;;;;10.53;73.24;102113.69;4996708;28;45319;-55
2023/12/20 09:52:25;;;;;;;;;6.00;2.67;;;;;10.57;73.97;102115.16;4997066;28;45398;-56
2023/12/20 09:54:53;;;;;;;;;4.67;3.00;;;;;10.54;73.21;102107.41;4997146;28;45389;-56
2023/12/20 09:57:18;;;;;;;;;7.00;5.67;;;;;10.62;73.06;102117.47;4997162;28;45445;-57
2023/12/20 09:59:44;;;;;;;;;9.00;3.00;;;;;10.71;73.27;102124.81;4996832;28;46024;-58
2023/12/20 10:02:14;;;;;;;;;5.67;2.00;;;;;10.78;73.36;102125.19;4996951;28;45273;-57
2023/12/20 10:04:48;;;;;;;;;6.67;5.00;;;;;10.98;72.09;102119.22;4996902;28;45526;-57
2023/12/20 10:07:14;;;;;;;;;6.00;6.00;;;;;11.45;71.46;102112.91;4995910;28;45397;-56
2023/12/20 10:09:40;;;;;;;;;0.33;0.33;;;;;11.90;70.00;102112.13;4996691;28;46074;-57
2023/12/20 10:12:06;;;;;;;;;2.00;2.00;;;;;11.83;69.67;102121.56;4996953;28;45522;-57
2023/12/20 10:14:32;;;;;;;;;10.33;2.67;;;;;11.65;70.36;102116.69;4996781;28;45390;-57
2023/12/20 10:17:03;;;;;;;;;6.00;5.00;;;;;11.51;70.55;102114.25;4996883;28;45311;-55
2023/12/20 10:19:28;;;;;;;;;8.00;5.67;;;;;11.51;70.48;102113.41;4996274;28;46395;-58
2023/12/20 10:21:54;;;;;;;;;6.67;1.00;;;;;11.52;70.89;102107.13;4996667;28;45402;-56
2023/12/20 10:24:20;;;;;;;;;6.00;3.00;;;;;11.59;70.05;102101.19;4996669;28;45389;-56
2023/12/20 10:26:45;;;;;;;;;6.67;4.00;;;;;11.81;69.74;102105.69;4996754;28;45369;-54
2023/12/20 10:29:11;;;;;;;;;6.67;2.00;;;;;11.83;69.74;102097.56;4996212;28;45341;-54
2023/12/20 10:31:38;;;;;;;;;4.00;2.00;;;;;11.91;69.51;102088.00;4996331;28;45474;-56
2023/12/20 10:34:04;;;;;;;;;7.33;2.00;;;;;12.18;69.46;102082.28;4996261;28;45476;-56
2023/12/20 10:36:33;;;;;;;;;6.00;4.00;;;;;12.71;69.86;102071.66;4996354;28;45420;-54
2023/12/20 10:38:59;;;;;;;;;4.67;3.67;;;;;13.36;66.77;102068.91;4996109;28;45910;-56
2023/12/20 10:41:27;;;;;;;;;3.00;3.00;;;;;14.35;64.49;102054.72;4996187;28;45445;-53
2023/12/20 10:43:54;;;;;;;;;7.67;1.33;;;;;14.46;62.40;102067.13;4996453;28;45378;-56
2023/12/20 10:46:20;;;;;;;;;4.00;2.00;;;;;13.92;63.33;102074.63;4996487;28;45194;-56
2023/12/20 10:48:46;;;;;;;;;2.00;2.00;;;;;13.60;63.93;102079.28;4995893;28;46101;-57
2023/12/20 10:51:14;;;;;;;;;3.33;3.00;;;;;13.22;64.26;102076.25;4996027;28;45256;-56
2023/12/20 10:53:40;;;;;;;;;8.33;2.67;;;;;13.15;66.21;102082.25;4996438;28;45534;-56
2023/12/20 10:56:08;;;;;;;;;9.00;4.00;;;;;12.97;65.02;102065.94;4995168;28;45285;-56
2023/12/20 10:58:35;;;;;;;;;2.67;2.33;;;;;13.79;67.36;102063.31;4995907;28;45577;-55
2023/12/20 11:01:02;;;;;;;;;7.00;4.00;;;;;14.09;62.50;102062.44;4996513;28;45713;-56
2023/12/20 11:03:31;;;;;;;;;6.00;2.00;;;;;14.41;61.95;102055.97;4996191;28;45370;-58
2023/12/20 11:06:09;;;;;;;;;9.67;3.00;;;;;14.49;61.39;102053.47;4996312;28;45595;-55
2023/12/20 11:08:51;;;;;;;;;5.00;3.00;;;;;13.99;62.95;102053.53;4995839;28;47053;-56
2023/12/20 11:11:35;;;;;;;;;2.00;2.00;;;;;13.66;65.02;102044.84;4996045;28;45498;-58
2023/12/20 11:14:06;;;;;;;;;4.00;3.00;;;;;13.36;63.13;102042.19;4995902;28;45426;-56
2023/12/20 11:16:32;;;;;;;;;3.67;2.00;;;;;13.16;64.51;102026.00;4996102;28;45562;-58
2023/12/20 11:18:58;;;;;;;;;1.00;1.00;;;;;12.85;64.09;102017.09;4995768;28;45315;-58
2023/12/20 11:21:23;;;;;;;;;8.00;3.00;;;;;13.11;64.64;102017.53;4995746;28;45234;-58
2023/12/20 11:23:48;;;;;;;;;5.33;5.33;;;;;13.40;63.78;102016.84;4996005;28;45363;-57
2023/12/20 11:26:17;;;;;;;;;4.00;2.00;;;;;13.70;62.76;102005.31;4995808;28;45410;-57